sensor_id;sensor_type;location;lat;lon;timestamp;P1;durP1;ratioP1;P2;durP2;ratioP2
55633;SDS011;41504;53.162;6.788;2024-03-08T00:02:24;32.10;;;19.00;;
55633;SDS011;41504;53.162;6.788;2024-03-08T00:04:50;31.67;;;19.30;;
55633;SDS011;41504;53.162;6.788;2024-03-08T00:07:15;31.23;;;19.67;;
55633;SDS011;41504;53.162;6.788;2024-03-08T00:09:41;33.75;;;19.42;;
55633;SDS011;41504;53.162;6.788;2024-03-08T00:12:07;30.88;;;19.25;;
55633;SDS011;41504;53.162;6.788;2024-03-08T00:14:33;30.90;;;17.88;;
55633;SDS011;41504;53.162;6.788;2024-03-08T00:17:00;34.03;;;20.08;;
55633;SDS011;41504;53.162;6.788;2024-03-08T00:19:26;32.03;;;19.90;;
55633;SDS011;41504;53.162;6.788;2024-03-08T00:21:51;35.25;;;19.83;;
55633;SDS011;41504;53.162;6.788;2024-03-08T00:24:17;32.90;;;19.35;;
55633;SDS011;41504;53.162;6.788;2024-03-08T00:26:43;34.13;;;19.88;;
55633;SDS011;41504;53.162;6.788;2024-03-08T00:29:09;33.22;;;19.83;;
55633;SDS011;41504;53.162;6.788;2024-03-08T00:31:34;32.47;;;19.55;;
55633;SDS011;41504;53.162;6.788;2024-03-08T00:34:00;35.00;;;21.17;;
55633;SDS011;41504;53.162;6.788;2024-03-08T00:36:26;33.38;;;20.50;;
55633;SDS011;41504;53.162;6.788;2024-03-08T00:38:52;34.50;;;20.73;;
55633;SDS011;41504;53.162;6.788;2024-03-08T00:41:17;36.10;;;22.02;;
55633;SDS011;41504;53.162;6.788;2024-03-08T00:43:43;34.95;;;19.98;;
55633;SDS011;41504;53.162;6.788;2024-03-08T00:46:09;36.53;;;20.13;;
55633;SDS011;41504;53.162;6.788;2024-03-08T00:48:35;34.92;;;20.83;;
55633;SDS011;41504;53.162;6.788;2024-03-08T00:51:01;35.55;;;19.80;;
55633;SDS011;41504;53.162;6.788;2024-03-08T00:53:27;39.50;;;22.63;;
55633;SDS011;41504;53.162;6.788;2024-03-08T00:55:53;37.35;;;21.58;;
55633;SDS011;41504;53.162;6.788;2024-03-08T00:58:20;36.88;;;20.58;;
55633;SDS011;41504;53.162;6.788;2024-03-08T01:00:46;39.20;;;20.98;;
55633;SDS011;41504;53.162;6.788;2024-03-08T01:03:12;34.50;;;20.60;;
55633;SDS011;41504;53.162;6.788;2024-03-08T01:05:37;37.45;;;21.92;;
55633;SDS011;41504;53.162;6.788;2024-03-08T01:08:03;35.15;;;20.10;;
55633;SDS011;41504;53.162;6.788;2024-03-08T01:10:30;36.15;;;20.40;;
55633;SDS011;41504;53.162;6.788;2024-03-08T01:12:55;38.03;;;21.67;;
55633;SDS011;41504;53.162;6.788;2024-03-08T01:15:22;38.28;;;21.52;;
55633;SDS011;41504;53.162;6.788;2024-03-08T01:17:48;33.35;;;19.27;;
55633;SDS011;41504;53.162;6.788;2024-03-08T01:20:15;34.80;;;20.73;;
55633;SDS011;41504;53.162;6.788;2024-03-08T01:22:41;34.28;;;20.38;;
55633;SDS011;41504;53.162;6.788;2024-03-08T01:25:07;36.75;;;19.98;;
55633;SDS011;41504;53.162;6.788;2024-03-08T01:27:33;34.28;;;20.17;;
55633;SDS011;41504;53.162;6.788;2024-03-08T01:30:00;37.13;;;20.77;;
55633;SDS011;41504;53.162;6.788;2024-03-08T01:32:26;36.90;;;21.00;;
55633;SDS011;41504;53.162;6.788;2024-03-08T01:34:52;36.95;;;20.88;;
55633;SDS011;41504;53.162;6.788;2024-03-08T01:37:18;39.30;;;21.33;;
55633;SDS011;41504;53.162;6.788;2024-03-08T01:39:45;38.08;;;20.58;;
55633;SDS011;41504;53.162;6.788;2024-03-08T01:42:10;38.38;;;20.02;;
55633;SDS011;41504;53.162;6.788;2024-03-08T01:44:40;36.85;;;21.15;;
55633;SDS011;41504;53.162;6.788;2024-03-08T01:47:06;35.28;;;20.48;;
55633;SDS011;41504;53.162;6.788;2024-03-08T01:49:32;36.75;;;20.73;;
55633;SDS011;41504;53.162;6.788;2024-03-08T01:51:58;36.58;;;19.73;;
55633;SDS011;41504;53.162;6.788;2024-03-08T01:54:24;35.17;;;20.55;;
55633;SDS011;41504;53.162;6.788;2024-03-08T01:56:51;38.72;;;21.85;;
55633;SDS011;41504;53.162;6.788;2024-03-08T01:59:18;35.05;;;20.65;;
55633;SDS011;41504;53.162;6.788;2024-03-08T02:01:44;34.83;;;19.88;;
55633;SDS011;41504;53.162;6.788;2024-03-08T02:04:10;36.58;;;19.50;;
55633;SDS011;41504;53.162;6.788;2024-03-08T02:06:36;37.85;;;21.27;;
55633;SDS011;41504;53.162;6.788;2024-03-08T02:09:03;37.25;;;20.02;;
55633;SDS011;41504;53.162;6.788;2024-03-08T02:11:33;34.63;;;20.45;;
55633;SDS011;41504;53.162;6.788;2024-03-08T02:13:59;35.20;;;20.42;;
55633;SDS011;41504;53.162;6.788;2024-03-08T02:16:25;35.92;;;21.10;;
55633;SDS011;41504;53.162;6.788;2024-03-08T02:18:51;34.58;;;19.70;;
55633;SDS011;41504;53.162;6.788;2024-03-08T02:21:17;32.92;;;18.65;;
55633;SDS011;41504;53.162;6.788;2024-03-08T02:23:43;35.30;;;19.63;;
55633;SDS011;41504;53.162;6.788;2024-03-08T02:26:09;33.58;;;18.60;;
55633;SDS011;41504;53.162;6.788;2024-03-08T02:28:35;32.67;;;19.73;;
55633;SDS011;41504;53.162;6.788;2024-03-08T02:31:02;36.53;;;20.05;;
55633;SDS011;41504;53.162;6.788;2024-03-08T02:33:27;34.85;;;19.85;;
55633;SDS011;41504;53.162;6.788;2024-03-08T02:35:53;35.47;;;19.90;;
55633;SDS011;41504;53.162;6.788;2024-03-08T02:38:21;32.17;;;19.10;;
55633;SDS011;41504;53.162;6.788;2024-03-08T02:40:49;34.92;;;18.88;;
55633;SDS011;41504;53.162;6.788;2024-03-08T02:43:16;35.58;;;19.35;;
55633;SDS011;41504;53.162;6.788;2024-03-08T02:45:43;35.28;;;19.83;;
55633;SDS011;41504;53.162;6.788;2024-03-08T02:48:10;33.58;;;19.67;;
55633;SDS011;41504;53.162;6.788;2024-03-08T02:50:37;34.67;;;19.10;;
55633;SDS011;41504;53.162;6.788;2024-03-08T02:53:04;29.02;;;18.20;;
55633;SDS011;41504;53.162;6.788;2024-03-08T02:55:30;34.38;;;18.33;;
55633;SDS011;41504;53.162;6.788;2024-03-08T02:57:58;33.05;;;17.65;;
55633;SDS011;41504;53.162;6.788;2024-03-08T03:00:24;32.58;;;18.13;;
55633;SDS011;41504;53.162;6.788;2024-03-08T03:02:50;31.52;;;17.95;;
55633;SDS011;41504;53.162;6.788;2024-03-08T03:05:22;35.05;;;18.55;;
55633;SDS011;41504;53.162;6.788;2024-03-08T03:07:49;33.47;;;18.08;;
55633;SDS011;41504;53.162;6.788;2024-03-08T03:10:18;33.33;;;18.95;;
55633;SDS011;41504;53.162;6.788;2024-03-08T03:12:46;31.55;;;17.58;;
55633;SDS011;41504;53.162;6.788;2024-03-08T03:15:16;33.60;;;18.80;;
55633;SDS011;41504;53.162;6.788;2024-03-08T03:17:49;33.67;;;18.88;;
55633;SDS011;41504;53.162;6.788;2024-03-08T03:20:18;36.15;;;19.38;;
55633;SDS011;41504;53.162;6.788;2024-03-08T03:22:58;33.30;;;19.17;;
55633;SDS011;41504;53.162;6.788;2024-03-08T03:25:26;30.85;;;18.05;;
55633;SDS011;41504;53.162;6.788;2024-03-08T03:27:58;32.75;;;18.15;;
55633;SDS011;41504;53.162;6.788;2024-03-08T03:30:23;32.33;;;19.17;;
55633;SDS011;41504;53.162;6.788;2024-03-08T03:32:51;31.10;;;18.98;;
55633;SDS011;41504;53.162;6.788;2024-03-08T03:35:19;34.35;;;17.70;;
55633;SDS011;41504;53.162;6.788;2024-03-08T03:37:46;34.03;;;19.15;;
55633;SDS011;41504;53.162;6.788;2024-03-08T03:40:30;34.28;;;18.77;;
55633;SDS011;41504;53.162;6.788;2024-03-08T03:42:57;32.05;;;18.25;;
55633;SDS011;41504;53.162;6.788;2024-03-08T03:45:26;32.03;;;18.00;;
55633;SDS011;41504;53.162;6.788;2024-03-08T03:47:52;32.97;;;17.73;;
55633;SDS011;41504;53.162;6.788;2024-03-08T03:50:18;33.25;;;17.48;;
55633;SDS011;41504;53.162;6.788;2024-03-08T03:52:47;35.30;;;17.98;;
55633;SDS011;41504;53.162;6.788;2024-03-08T03:55:13;31.70;;;17.45;;
55633;SDS011;41504;53.162;6.788;2024-03-08T03:57:40;30.70;;;16.88;;
55633;SDS011;41504;53.162;6.788;2024-03-08T04:00:06;44.70;;;17.77;;
55633;SDS011;41504;53.162;6.788;2024-03-08T04:02:37;29.65;;;17.73;;
55633;SDS011;41504;53.162;6.788;2024-03-08T04:05:04;30.60;;;16.95;;
55633;SDS011;41504;53.162;6.788;2024-03-08T04:07:31;33.35;;;17.35;;
55633;SDS011;41504;53.162;6.788;2024-03-08T04:09:57;31.48;;;17.77;;
55633;SDS011;41504;53.162;6.788;2024-03-08T04:12:23;31.00;;;18.02;;
55633;SDS011;41504;53.162;6.788;2024-03-08T04:14:48;33.55;;;17.85;;
55633;SDS011;41504;53.162;6.788;2024-03-08T04:17:15;31.35;;;18.58;;
55633;SDS011;41504;53.162;6.788;2024-03-08T04:19:40;29.05;;;16.45;;
55633;SDS011;41504;53.162;6.788;2024-03-08T04:22:07;28.50;;;16.42;;
55633;SDS011;41504;53.162;6.788;2024-03-08T04:24:33;30.40;;;16.85;;
55633;SDS011;41504;53.162;6.788;2024-03-08T04:26:59;31.42;;;16.75;;
55633;SDS011;41504;53.162;6.788;2024-03-08T04:29:25;29.85;;;17.83;;
55633;SDS011;41504;53.162;6.788;2024-03-08T04:31:52;30.63;;;17.13;;
55633;SDS011;41504;53.162;6.788;2024-03-08T04:34:19;28.80;;;16.48;;
55633;SDS011;41504;53.162;6.788;2024-03-08T04:36:47;31.73;;;16.02;;
55633;SDS011;41504;53.162;6.788;2024-03-08T04:39:13;29.95;;;17.52;;
55633;SDS011;41504;53.162;6.788;2024-03-08T04:41:39;30.23;;;16.83;;
55633;SDS011;41504;53.162;6.788;2024-03-08T04:44:05;29.63;;;17.08;;
55633;SDS011;41504;53.162;6.788;2024-03-08T04:46:31;30.83;;;16.45;;
55633;SDS011;41504;53.162;6.788;2024-03-08T04:48:57;31.45;;;17.63;;
55633;SDS011;41504;53.162;6.788;2024-03-08T04:51:24;31.63;;;17.23;;
55633;SDS011;41504;53.162;6.788;2024-03-08T04:53:50;29.85;;;16.58;;
55633;SDS011;41504;53.162;6.788;2024-03-08T04:56:16;30.58;;;17.75;;
55633;SDS011;41504;53.162;6.788;2024-03-08T04:58:44;30.60;;;17.55;;
55633;SDS011;41504;53.162;6.788;2024-03-08T05:01:13;26.75;;;15.88;;
55633;SDS011;41504;53.162;6.788;2024-03-08T05:03:39;33.13;;;17.05;;
55633;SDS011;41504;53.162;6.788;2024-03-08T05:06:05;29.15;;;16.23;;
55633;SDS011;41504;53.162;6.788;2024-03-08T05:08:31;32.22;;;16.73;;
55633;SDS011;41504;53.162;6.788;2024-03-08T05:10:58;29.48;;;17.65;;
55633;SDS011;41504;53.162;6.788;2024-03-08T05:13:23;30.48;;;16.20;;
55633;SDS011;41504;53.162;6.788;2024-03-08T05:15:49;31.30;;;17.08;;
55633;SDS011;41504;53.162;6.788;2024-03-08T05:18:18;26.38;;;15.82;;
55633;SDS011;41504;53.162;6.788;2024-03-08T05:20:43;31.83;;;17.13;;
55633;SDS011;41504;53.162;6.788;2024-03-08T05:23:10;29.98;;;15.95;;
55633;SDS011;41504;53.162;6.788;2024-03-08T05:25:35;31.02;;;16.55;;
55633;SDS011;41504;53.162;6.788;2024-03-08T05:28:01;33.03;;;17.02;;
55633;SDS011;41504;53.162;6.788;2024-03-08T05:30:29;29.20;;;16.73;;
55633;SDS011;41504;53.162;6.788;2024-03-08T05:32:55;28.27;;;15.73;;
55633;SDS011;41504;53.162;6.788;2024-03-08T05:35:22;27.45;;;16.52;;
55633;SDS011;41504;53.162;6.788;2024-03-08T05:37:47;29.73;;;15.90;;
55633;SDS011;41504;53.162;6.788;2024-03-08T05:40:13;32.92;;;19.92;;
55633;SDS011;41504;53.162;6.788;2024-03-08T05:42:40;32.92;;;17.50;;
55633;SDS011;41504;53.162;6.788;2024-03-08T05:45:06;27.98;;;16.75;;
55633;SDS011;41504;53.162;6.788;2024-03-08T05:47:32;34.65;;;17.35;;
55633;SDS011;41504;53.162;6.788;2024-03-08T05:49:58;28.58;;;16.60;;
55633;SDS011;41504;53.162;6.788;2024-03-08T05:52:24;34.92;;;16.23;;
55633;SDS011;41504;53.162;6.788;2024-03-08T05:54:51;28.35;;;16.50;;
55633;SDS011;41504;53.162;6.788;2024-03-08T05:57:17;28.23;;;16.33;;
55633;SDS011;41504;53.162;6.788;2024-03-08T05:59:43;29.58;;;17.13;;
55633;SDS011;41504;53.162;6.788;2024-03-08T06:02:08;30.75;;;17.33;;
55633;SDS011;41504;53.162;6.788;2024-03-08T06:04:34;31.38;;;17.08;;
55633;SDS011;41504;53.162;6.788;2024-03-08T06:07:00;32.25;;;16.70;;
55633;SDS011;41504;53.162;6.788;2024-03-08T06:09:28;28.92;;;15.65;;
55633;SDS011;41504;53.162;6.788;2024-03-08T06:11:54;31.58;;;16.75;;
55633;SDS011;41504;53.162;6.788;2024-03-08T06:14:20;27.17;;;15.45;;
55633;SDS011;41504;53.162;6.788;2024-03-08T06:16:46;32.35;;;17.88;;
55633;SDS011;41504;53.162;6.788;2024-03-08T06:19:12;27.95;;;16.38;;
55633;SDS011;41504;53.162;6.788;2024-03-08T06:21:39;29.95;;;15.80;;
55633;SDS011;41504;53.162;6.788;2024-03-08T06:24:04;32.63;;;17.35;;
55633;SDS011;41504;53.162;6.788;2024-03-08T06:26:30;28.52;;;16.92;;
55633;SDS011;41504;53.162;6.788;2024-03-08T06:28:56;29.38;;;16.02;;
55633;SDS011;41504;53.162;6.788;2024-03-08T06:31:22;30.60;;;16.23;;
55633;SDS011;41504;53.162;6.788;2024-03-08T06:33:49;28.27;;;15.48;;
55633;SDS011;41504;53.162;6.788;2024-03-08T06:36:18;31.15;;;16.17;;
55633;SDS011;41504;53.162;6.788;2024-03-08T06:38:46;29.85;;;16.95;;
55633;SDS011;41504;53.162;6.788;2024-03-08T06:41:15;31.95;;;16.25;;
55633;SDS011;41504;53.162;6.788;2024-03-08T06:43:45;28.85;;;15.70;;
55633;SDS011;41504;53.162;6.788;2024-03-08T06:46:11;28.73;;;16.38;;
55633;SDS011;41504;53.162;6.788;2024-03-08T06:48:38;28.33;;;15.88;;
55633;SDS011;41504;53.162;6.788;2024-03-08T06:51:04;30.88;;;17.05;;
55633;SDS011;41504;53.162;6.788;2024-03-08T06:53:30;30.42;;;17.08;;
55633;SDS011;41504;53.162;6.788;2024-03-08T06:55:56;30.75;;;17.15;;
55633;SDS011;41504;53.162;6.788;2024-03-08T06:58:23;28.55;;;16.77;;
55633;SDS011;41504;53.162;6.788;2024-03-08T07:00:48;30.42;;;16.83;;
55633;SDS011;41504;53.162;6.788;2024-03-08T07:03:17;29.95;;;16.83;;
55633;SDS011;41504;53.162;6.788;2024-03-08T07:05:43;30.52;;;16.50;;
55633;SDS011;41504;53.162;6.788;2024-03-08T07:08:09;32.20;;;16.70;;
55633;SDS011;41504;53.162;6.788;2024-03-08T07:10:35;32.03;;;17.17;;
55633;SDS011;41504;53.162;6.788;2024-03-08T07:13:02;29.63;;;17.20;;
55633;SDS011;41504;53.162;6.788;2024-03-08T07:15:28;32.88;;;17.58;;
55633;SDS011;41504;53.162;6.788;2024-03-08T07:17:54;32.13;;;18.40;;
55633;SDS011;41504;53.162;6.788;2024-03-08T07:20:20;29.80;;;17.13;;
55633;SDS011;41504;53.162;6.788;2024-03-08T07:22:46;30.65;;;17.35;;
55633;SDS011;41504;53.162;6.788;2024-03-08T07:25:13;33.45;;;18.05;;
55633;SDS011;41504;53.162;6.788;2024-03-08T07:27:52;31.63;;;18.33;;
55633;SDS011;41504;53.162;6.788;2024-03-08T07:30:20;29.85;;;16.52;;
55633;SDS011;41504;53.162;6.788;2024-03-08T07:33:05;28.80;;;17.42;;
55633;SDS011;41504;53.162;6.788;2024-03-08T07:35:32;31.45;;;17.10;;
55633;SDS011;41504;53.162;6.788;2024-03-08T07:37:58;33.15;;;17.50;;
55633;SDS011;41504;53.162;6.788;2024-03-08T07:40:27;28.52;;;17.80;;
55633;SDS011;41504;53.162;6.788;2024-03-08T07:42:53;32.65;;;18.02;;
55633;SDS011;41504;53.162;6.788;2024-03-08T07:45:19;32.03;;;18.48;;
55633;SDS011;41504;53.162;6.788;2024-03-08T07:47:47;33.15;;;17.92;;
55633;SDS011;41504;53.162;6.788;2024-03-08T07:50:12;31.77;;;18.65;;
55633;SDS011;41504;53.162;6.788;2024-03-08T07:52:41;30.40;;;18.65;;
55633;SDS011;41504;53.162;6.788;2024-03-08T07:55:07;28.13;;;17.70;;
55633;SDS011;41504;53.162;6.788;2024-03-08T07:57:35;33.88;;;18.88;;
55633;SDS011;41504;53.162;6.788;2024-03-08T08:00:03;34.40;;;19.15;;
55633;SDS011;41504;53.162;6.788;2024-03-08T08:02:32;34.05;;;19.10;;
55633;SDS011;41504;53.162;6.788;2024-03-08T08:04:59;31.80;;;18.75;;
55633;SDS011;41504;53.162;6.788;2024-03-08T08:07:28;31.35;;;18.50;;
55633;SDS011;41504;53.162;6.788;2024-03-08T08:09:54;31.52;;;18.17;;
55633;SDS011;41504;53.162;6.788;2024-03-08T08:12:19;32.03;;;19.88;;
55633;SDS011;41504;53.162;6.788;2024-03-08T08:14:46;30.70;;;18.33;;
55633;SDS011;41504;53.162;6.788;2024-03-08T08:17:12;32.35;;;19.52;;
55633;SDS011;41504;53.162;6.788;2024-03-08T08:19:37;28.70;;;18.30;;
55633;SDS011;41504;53.162;6.788;2024-03-08T08:22:05;35.00;;;18.90;;
55633;SDS011;41504;53.162;6.788;2024-03-08T08:24:33;30.38;;;18.85;;
55633;SDS011;41504;53.162;6.788;2024-03-08T08:27:01;34.70;;;20.02;;
55633;SDS011;41504;53.162;6.788;2024-03-08T08:29:28;29.75;;;19.17;;
55633;SDS011;41504;53.162;6.788;2024-03-08T08:31:54;31.45;;;19.10;;
55633;SDS011;41504;53.162;6.788;2024-03-08T08:34:19;33.28;;;18.77;;
55633;SDS011;41504;53.162;6.788;2024-03-08T08:36:49;30.63;;;19.13;;
55633;SDS011;41504;53.162;6.788;2024-03-08T08:39:14;35.65;;;18.98;;
55633;SDS011;41504;53.162;6.788;2024-03-08T08:41:42;31.38;;;19.55;;
55633;SDS011;41504;53.162;6.788;2024-03-08T08:44:07;35.53;;;19.52;;
55633;SDS011;41504;53.162;6.788;2024-03-08T08:46:37;32.45;;;18.80;;
55633;SDS011;41504;53.162;6.788;2024-03-08T08:49:04;31.77;;;18.48;;
55633;SDS011;41504;53.162;6.788;2024-03-08T08:51:31;32.67;;;19.48;;
55633;SDS011;41504;53.162;6.788;2024-03-08T08:53:58;34.05;;;19.85;;
55633;SDS011;41504;53.162;6.788;2024-03-08T08:56:24;29.70;;;18.45;;
55633;SDS011;41504;53.162;6.788;2024-03-08T08:58:51;31.20;;;18.80;;
55633;SDS011;41504;53.162;6.788;2024-03-08T09:01:18;31.17;;;18.75;;
55633;SDS011;41504;53.162;6.788;2024-03-08T09:03:45;31.42;;;19.42;;
55633;SDS011;41504;53.162;6.788;2024-03-08T09:06:15;30.20;;;19.27;;
55633;SDS011;41504;53.162;6.788;2024-03-08T09:08:41;32.47;;;20.50;;
55633;SDS011;41504;53.162;6.788;2024-03-08T09:11:09;30.23;;;18.92;;
55633;SDS011;41504;53.162;6.788;2024-03-08T09:13:35;31.52;;;19.83;;
55633;SDS011;41504;53.162;6.788;2024-03-08T09:16:02;33.50;;;19.65;;
55633;SDS011;41504;53.162;6.788;2024-03-08T09:18:30;33.08;;;20.20;;
55633;SDS011;41504;53.162;6.788;2024-03-08T09:20:57;32.10;;;19.73;;
55633;SDS011;41504;53.162;6.788;2024-03-08T09:23:23;34.70;;;21.00;;
55633;SDS011;41504;53.162;6.788;2024-03-08T09:25:50;30.40;;;20.25;;
55633;SDS011;41504;53.162;6.788;2024-03-08T09:28:16;32.90;;;21.38;;
55633;SDS011;41504;53.162;6.788;2024-03-08T09:30:42;33.65;;;21.52;;
55633;SDS011;41504;53.162;6.788;2024-03-08T09:33:09;34.70;;;21.58;;
55633;SDS011;41504;53.162;6.788;2024-03-08T09:35:36;35.25;;;21.60;;
55633;SDS011;41504;53.162;6.788;2024-03-08T09:38:02;32.75;;;21.85;;
55633;SDS011;41504;53.162;6.788;2024-03-08T09:40:31;32.80;;;21.50;;
55633;SDS011;41504;53.162;6.788;2024-03-08T09:42:57;32.17;;;20.98;;
55633;SDS011;41504;53.162;6.788;2024-03-08T09:45:23;31.10;;;20.33;;
55633;SDS011;41504;53.162;6.788;2024-03-08T09:47:50;32.50;;;21.50;;
55633;SDS011;41504;53.162;6.788;2024-03-08T09:50:16;31.35;;;20.10;;
55633;SDS011;41504;53.162;6.788;2024-03-08T09:52:43;32.38;;;20.05;;
55633;SDS011;41504;53.162;6.788;2024-03-08T09:55:11;35.58;;;21.23;;
55633;SDS011;41504;53.162;6.788;2024-03-08T09:57:37;33.88;;;22.00;;
55633;SDS011;41504;53.162;6.788;2024-03-08T10:00:04;35.30;;;21.05;;
55633;SDS011;41504;53.162;6.788;2024-03-08T10:02:46;31.65;;;20.73;;
55633;SDS011;41504;53.162;6.788;2024-03-08T10:05:13;30.85;;;20.42;;
55633;SDS011;41504;53.162;6.788;2024-03-08T10:07:39;29.85;;;20.33;;
55633;SDS011;41504;53.162;6.788;2024-03-08T10:10:05;31.90;;;20.25;;
55633;SDS011;41504;53.162;6.788;2024-03-08T10:12:34;30.42;;;20.20;;
55633;SDS011;41504;53.162;6.788;2024-03-08T10:15:00;29.40;;;20.35;;
55633;SDS011;41504;53.162;6.788;2024-03-08T10:17:26;32.30;;;20.67;;
55633;SDS011;41504;53.162;6.788;2024-03-08T10:19:57;30.63;;;20.63;;
55633;SDS011;41504;53.162;6.788;2024-03-08T10:22:25;31.25;;;21.63;;
55633;SDS011;41504;53.162;6.788;2024-03-08T10:24:51;34.00;;;21.20;;
55633;SDS011;41504;53.162;6.788;2024-03-08T10:27:17;31.80;;;21.52;;
55633;SDS011;41504;53.162;6.788;2024-03-08T10:29:43;31.25;;;21.30;;
55633;SDS011;41504;53.162;6.788;2024-03-08T10:32:13;34.17;;;21.90;;
55633;SDS011;41504;53.162;6.788;2024-03-08T10:34:38;32.53;;;21.88;;
55633;SDS011;41504;53.162;6.788;2024-03-08T10:37:06;32.47;;;21.30;;
55633;SDS011;41504;53.162;6.788;2024-03-08T10:39:37;34.50;;;22.42;;
55633;SDS011;41504;53.162;6.788;2024-03-08T10:42:08;31.58;;;22.02;;
55633;SDS011;41504;53.162;6.788;2024-03-08T10:44:52;34.75;;;22.50;;
55633;SDS011;41504;53.162;6.788;2024-03-08T10:47:29;33.75;;;22.95;;
55633;SDS011;41504;53.162;6.788;2024-03-08T10:50:05;32.03;;;22.55;;
55633;SDS011;41504;53.162;6.788;2024-03-08T10:52:41;33.78;;;22.80;;
55633;SDS011;41504;53.162;6.788;2024-03-08T10:55:07;33.80;;;22.35;;
55633;SDS011;41504;53.162;6.788;2024-03-08T10:57:38;32.33;;;22.75;;
55633;SDS011;41504;53.162;6.788;2024-03-08T11:00:05;33.42;;;22.92;;
55633;SDS011;41504;53.162;6.788;2024-03-08T11:02:35;31.83;;;22.70;;
55633;SDS011;41504;53.162;6.788;2024-03-08T11:05:02;32.22;;;22.35;;
55633;SDS011;41504;53.162;6.788;2024-03-08T11:07:33;32.17;;;21.38;;
55633;SDS011;41504;53.162;6.788;2024-03-08T11:10:02;35.65;;;22.50;;
55633;SDS011;41504;53.162;6.788;2024-03-08T11:12:38;32.20;;;21.50;;
55633;SDS011;41504;53.162;6.788;2024-03-08T11:15:11;31.08;;;22.27;;
55633;SDS011;41504;53.162;6.788;2024-03-08T11:17:47;32.22;;;21.98;;
55633;SDS011;41504;53.162;6.788;2024-03-08T11:20:17;32.13;;;22.67;;
55633;SDS011;41504;53.162;6.788;2024-03-08T11:25:37;34.88;;;23.60;;
55633;SDS011;41504;53.162;6.788;2024-03-08T11:28:16;30.98;;;22.60;;
55633;SDS011;41504;53.162;6.788;2024-03-08T11:33:29;33.50;;;23.65;;
55633;SDS011;41504;53.162;6.788;2024-03-08T11:38:41;35.53;;;22.83;;
55633;SDS011;41504;53.162;6.788;2024-03-08T11:41:14;31.58;;;22.63;;
55633;SDS011;41504;53.162;6.788;2024-03-08T11:43:40;31.13;;;22.13;;
55633;SDS011;41504;53.162;6.788;2024-03-08T11:46:16;33.78;;;23.35;;
55633;SDS011;41504;53.162;6.788;2024-03-08T11:48:43;33.33;;;23.05;;
55633;SDS011;41504;53.162;6.788;2024-03-08T11:51:12;32.83;;;22.85;;
55633;SDS011;41504;53.162;6.788;2024-03-08T11:53:39;30.70;;;22.38;;
55633;SDS011;41504;53.162;6.788;2024-03-08T11:58:38;31.85;;;22.50;;
55633;SDS011;41504;53.162;6.788;2024-03-08T12:01:11;32.05;;;22.77;;
55633;SDS011;41504;53.162;6.788;2024-03-08T12:03:40;34.87;;;23.23;;
55633;SDS011;41504;53.162;6.788;2024-03-08T12:06:09;30.90;;;22.98;;
55633;SDS011;41504;53.162;6.788;2024-03-08T12:08:36;33.00;;;23.20;;
55633;SDS011;41504;53.162;6.788;2024-03-08T12:11:04;32.50;;;22.88;;
55633;SDS011;41504;53.162;6.788;2024-03-08T12:13:32;29.65;;;22.33;;
55633;SDS011;41504;53.162;6.788;2024-03-08T12:15:59;31.85;;;22.98;;
55633;SDS011;41504;53.162;6.788;2024-03-08T12:18:29;30.58;;;21.83;;
55633;SDS011;41504;53.162;6.788;2024-03-08T12:21:06;28.98;;;21.98;;
55633;SDS011;41504;53.162;6.788;2024-03-08T12:23:33;29.05;;;20.40;;
55633;SDS011;41504;53.162;6.788;2024-03-08T12:28:41;29.38;;;21.20;;
55633;SDS011;41504;53.162;6.788;2024-03-08T12:31:10;29.45;;;21.00;;
55633;SDS011;41504;53.162;6.788;2024-03-08T12:33:37;29.77;;;22.10;;
55633;SDS011;41504;53.162;6.788;2024-03-08T12:36:16;31.45;;;21.55;;
55633;SDS011;41504;53.162;6.788;2024-03-08T12:38:46;29.45;;;22.17;;
55633;SDS011;41504;53.162;6.788;2024-03-08T12:41:18;31.27;;;22.02;;
55633;SDS011;41504;53.162;6.788;2024-03-08T12:43:45;29.25;;;21.33;;
55633;SDS011;41504;53.162;6.788;2024-03-08T12:46:20;32.50;;;22.55;;
55633;SDS011;41504;53.162;6.788;2024-03-08T12:48:55;29.40;;;21.83;;
55633;SDS011;41504;53.162;6.788;2024-03-08T12:51:21;31.65;;;22.10;;
55633;SDS011;41504;53.162;6.788;2024-03-08T12:53:47;28.33;;;20.77;;
55633;SDS011;41504;53.162;6.788;2024-03-08T12:56:13;30.70;;;22.42;;
55633;SDS011;41504;53.162;6.788;2024-03-08T12:59:02;28.58;;;20.63;;
55633;SDS011;41504;53.162;6.788;2024-03-08T13:01:30;29.90;;;21.23;;
55633;SDS011;41504;53.162;6.788;2024-03-08T13:03:59;29.95;;;19.67;;
55633;SDS011;41504;53.162;6.788;2024-03-08T13:06:27;31.48;;;21.10;;
55633;SDS011;41504;53.162;6.788;2024-03-08T13:08:54;27.58;;;19.95;;
55633;SDS011;41504;53.162;6.788;2024-03-08T13:11:20;27.48;;;19.65;;
55633;SDS011;41504;53.162;6.788;2024-03-08T13:13:48;26.77;;;19.58;;
55633;SDS011;41504;53.162;6.788;2024-03-08T13:16:14;28.17;;;19.95;;
55633;SDS011;41504;53.162;6.788;2024-03-08T13:18:42;25.77;;;18.80;;
55633;SDS011;41504;53.162;6.788;2024-03-08T13:21:08;31.80;;;20.30;;
55633;SDS011;41504;53.162;6.788;2024-03-08T13:23:40;29.42;;;19.85;;
55633;SDS011;41504;53.162;6.788;2024-03-08T13:26:10;25.25;;;19.17;;
55633;SDS011;41504;53.162;6.788;2024-03-08T13:28:46;27.83;;;19.13;;
55633;SDS011;41504;53.162;6.788;2024-03-08T13:31:21;28.23;;;19.70;;
55633;SDS011;41504;53.162;6.788;2024-03-08T13:33:48;25.02;;;19.08;;
55633;SDS011;41504;53.162;6.788;2024-03-08T13:36:15;25.08;;;18.83;;
55633;SDS011;41504;53.162;6.788;2024-03-08T13:38:45;26.02;;;19.23;;
55633;SDS011;41504;53.162;6.788;2024-03-08T13:41:11;25.25;;;18.45;;
55633;SDS011;41504;53.162;6.788;2024-03-08T13:43:42;25.58;;;18.38;;
55633;SDS011;41504;53.162;6.788;2024-03-08T13:46:10;24.75;;;18.33;;
55633;SDS011;41504;53.162;6.788;2024-03-08T13:48:36;24.75;;;18.85;;
55633;SDS011;41504;53.162;6.788;2024-03-08T13:51:06;25.05;;;18.38;;
55633;SDS011;41504;53.162;6.788;2024-03-08T13:53:33;24.92;;;18.58;;
55633;SDS011;41504;53.162;6.788;2024-03-08T13:56:02;21.63;;;17.73;;
55633;SDS011;41504;53.162;6.788;2024-03-08T13:58:28;24.80;;;17.70;;
55633;SDS011;41504;53.162;6.788;2024-03-08T14:00:54;23.38;;;17.95;;
55633;SDS011;41504;53.162;6.788;2024-03-08T14:03:20;24.13;;;17.45;;
55633;SDS011;41504;53.162;6.788;2024-03-08T14:05:46;23.80;;;17.23;;
55633;SDS011;41504;53.162;6.788;2024-03-08T14:08:12;22.92;;;17.52;;
55633;SDS011;41504;53.162;6.788;2024-03-08T14:10:39;24.13;;;18.52;;
55633;SDS011;41504;53.162;6.788;2024-03-08T14:13:05;26.98;;;18.75;;
55633;SDS011;41504;53.162;6.788;2024-03-08T14:15:32;25.05;;;17.95;;
55633;SDS011;41504;53.162;6.788;2024-03-08T14:17:58;26.92;;;18.52;;
55633;SDS011;41504;53.162;6.788;2024-03-08T14:20:24;24.40;;;18.45;;
55633;SDS011;41504;53.162;6.788;2024-03-08T14:22:51;24.95;;;16.83;;
55633;SDS011;41504;53.162;6.788;2024-03-08T14:25:20;24.25;;;18.33;;
55633;SDS011;41504;53.162;6.788;2024-03-08T14:27:48;23.55;;;17.55;;
55633;SDS011;41504;53.162;6.788;2024-03-08T14:30:15;26.50;;;16.88;;
55633;SDS011;41504;53.162;6.788;2024-03-08T14:32:58;23.85;;;16.70;;
55633;SDS011;41504;53.162;6.788;2024-03-08T14:35:26;25.20;;;18.02;;
55633;SDS011;41504;53.162;6.788;2024-03-08T14:37:52;23.58;;;17.90;;